Weather at Holy Family Hospital Heliport

Public forecast

Using degrees Fahrenheit for public forecast. Weather courtesy of forecast.io.

Closest aviation weather report (METAR) to Holy Family Hospital Heliport

Report is more than 6 hours old.

Closest report is Lawrence Municipal Airport, 2.1 nm (3.9 km) ESE.

2022/11/14 14:54 (retrieved 2 years ago)

KLWM 141454Z 30012G22KT 10SM FEW043 03/M07 A3023 RMK AO2 SLP238 T00281072 53026

Closest aviation forecast (TAF) to Holy Family Hospital Heliport

Forecast is more than 12 hours old.

Closest forecast is Laurence G Hanscom Field, 16.4 nm (30.3 km) SSW.

2023/02/22 18:40 (retrieved 1 year ago)

TAF KBED 221738Z 2218/2318 27006KT P6SM BKN200 FM230200 00000KT 1SM -SN BR OVC003 FM230600 09005KT 1 1/2SM -PL BR OVC003 FM231400 05010KT 1 1/2SM -SN BR OVC008 FM231700 04011G18KT 2SM BR VCSH OVC008